Time;durP1;ratioP1;P1;durP2;ratioP2;P2;SDS_P1;SDS_P2;PMS_P1;PMS_P2;Temp;Humidity;BMP_temperature;BMP_pressure;BME280_temperature;BME280_humidity;BME280_pressure;Samples;Min_cycle;Max_cycle;Signal;HPM_P1;HPM_P2
2022/05/14 00:00:11;;;;;;;;;;;;;;;24.97;15.93;99294.22;5113990;28;19916;-73
2022/05/14 00:02:37;;;;;;;;;;;;;;;24.96;16.09;99284.38;5114788;28;19916;-75
2022/05/14 00:05:03;;;;;;;;;;;;;;;24.97;16.05;99286.00;5113770;28;19923;-75
2022/05/14 00:07:28;;;;;;;;;;;;;;;24.97;15.99;99280.53;5094959;28;19916;-74
2022/05/14 00:09:53;;;;;;;;;;;;;;;24.97;15.92;99286.81;5093311;28;20284;-75
2022/05/14 00:15:02;;;;;;;;;;;;;;;24.96;15.82;99295.31;5093402;28;20030;-76
2022/05/14 00:17:27;;;;;;;;;;;;;;;24.96;15.80;99289.84;5093155;28;19916;-74
2022/05/14 00:19:53;;;;;;;;;;;;;;;24.96;15.86;99298.88;5093434;28;19916;-74
2022/05/14 00:22:18;;;;;;;;;;;;;;;24.96;15.95;99292.59;5093590;28;19924;-75
2022/05/14 00:24:43;;;;;;;;;;;;;;;24.95;15.97;99289.06;5093198;28;19949;-74
2022/05/14 00:27:08;;;;;;;;;;;;;;;24.97;16.08;99302.41;5093295;28;19920;-74
2022/05/14 00:29:34;;;;;;;;;;;;;;;24.95;15.94;99299.97;5093448;28;19916;-74
2022/05/14 00:31:59;;;;;;;;;;;;;;;24.90;16.00;99287.22;5093108;28;19942;-74
2022/05/14 00:34:24;;;;;;;;;;;;;;;24.96;15.84;99300.78;5093318;28;19916;-74
2022/05/14 00:36:49;;;;;;;;;;;;;;;24.93;15.97;99297.56;5093094;28;20286;-77
2022/05/14 00:39:15;;;;;;;;;;;;;;;24.93;15.90;99294.81;5094233;28;19970;-73
2022/05/14 00:41:45;;;;;;;;;;;;;;;24.95;16.22;99299.97;5093727;28;20331;-76
2022/05/14 00:44:10;;;;;;;;;;;;;;;24.95;15.95;99307.38;5097292;28;19916;-77
2022/05/14 00:46:36;;;;;;;;;;;;;;;24.93;16.29;99308.47;5097000;28;19985;-74
2022/05/14 00:49:01;;;;;;;;;;;;;;;24.95;16.14;99310.13;5096823;28;20045;-75
2022/05/14 00:51:29;;;;;;;;;;;;;;;24.93;16.12;99307.69;5078577;28;19939;-74
2022/05/14 00:53:59;;;;;;;;;;;;;;;24.92;16.16;99304.16;5079028;28;19920;-74
2022/05/14 00:56:25;;;;;;;;;;;;;;;24.92;16.06;99298.69;5078835;28;19915;-76
2022/05/14 00:58:52;;;;;;;;;;;;;;;24.92;16.16;99293.22;5096963;28;19942;-73
2022/05/14 01:01:17;;;;;;;;;;;;;;;24.92;16.01;99284.19;5078502;28;20054;-74
2022/05/14 01:03:42;;;;;;;;;;;;;;;24.92;15.88;99279.56;5096516;28;19963;-75
2022/05/14 01:06:08;;;;;;;;;;;;;;;24.91;16.09;99283.41;5096631;28;19923;-74
2022/05/14 01:08:34;;;;;;;;;;;;;;;24.92;15.87;99287.75;5105618;28;19916;-74
2022/05/14 01:10:59;;;;;;;;;;;;;;;24.92;15.97;99290.50;5098548;28;19923;-75
2022/05/14 01:13:24;;;;;;;;;;;;;;;24.91;16.03;99280.66;5116948;28;19959;-74
2022/05/14 01:15:52;;;;;;;;;;;;;;;24.91;16.02;99275.19;5116699;28;20431;-75
2022/05/14 01:18:18;;;;;;;;;;;;;;;24.91;15.82;99280.66;5117209;28;19916;-76
2022/05/14 01:21:09;;;;;;;;;;;;;;;24.91;15.93;99288.88;5116827;28;19961;-73
2022/05/14 01:26:27;;;;;;;;;;;;;;;24.91;16.12;99283.41;5053783;28;19916;-74
2022/05/14 01:26:29;;;;;;;;;;;;;;;24.91;16.09;99280.66;5053604;28;19960;-74
2022/05/14 01:28:57;;;;;;;;;;;;;;;24.90;16.15;99281.78;5053840;28;19953;-74
2022/05/14 01:31:22;;;;;;;;;;;;;;;24.91;16.15;99286.13;5053724;28;19921;-75
2022/05/14 01:33:47;;;;;;;;;;;;;;;24.89;15.80;99282.91;5053570;28;19917;-74
2022/05/14 01:36:12;;;;;;;;;;;;;;;24.89;15.97;99280.19;5053567;28;19955;-74
2022/05/14 01:38:38;;;;;;;;;;;;;;;24.90;15.82;99275.50;5053977;28;19923;-76
2022/05/14 01:41:03;;;;;;;;;;;;;;;24.90;16.13;99279.03;5053774;28;20283;-74
2022/05/14 01:43:29;;;;;;;;;;;;;;;24.89;15.90;99276.66;5053491;28;19917;-75
2022/05/14 01:45:54;;;;;;;;;;;;;;;24.90;15.94;99270.03;5053441;28;20363;-76
2022/05/14 01:48:19;;;;;;;;;;;;;;;24.89;16.01;99274.72;5053694;28;20303;-74
2022/05/14 01:50:44;;;;;;;;;;;;;;;24.90;15.82;99270.03;5053765;28;19917;-74
2022/05/14 01:53:10;;;;;;;;;;;;;;;24.89;15.82;99269.25;5052995;28;19921;-75
2022/05/14 01:55:35;;;;;;;;;;;;;;;24.90;15.88;99268.09;5053116;28;19962;-73
2022/05/14 01:58:00;;;;;;;;;;;;;;;24.89;16.15;99271.97;5053979;28;20012;-75
2022/05/14 02:00:25;;;;;;;;;;;;;;;24.89;16.14;99271.97;5086584;28;19915;-77
2022/05/14 02:02:51;;;;;;;;;;;;;;;24.89;15.76;99276.66;5116023;28;20014;-74
2022/05/14 02:05:16;;;;;;;;;;;;;;;24.87;15.97;99282.41;5115734;28;19926;-74
2022/05/14 02:07:42;;;;;;;;;;;;;;;24.88;15.88;99281.28;5114223;28;19973;-75
2022/05/14 02:10:07;;;;;;;;;;;;;;;24.88;16.11;99272.28;5095591;28;19962;-73
2022/05/14 02:12:32;;;;;;;;;;;;;;;24.87;15.90;99270.66;5095939;28;19920;-74
2022/05/14 02:14:58;;;;;;;;;;;;;;;24.88;15.82;99272.28;5095342;28;20359;-76
2022/05/14 02:17:23;;;;;;;;;;;;;;;24.86;15.85;99269.84;5095107;28;19985;-73
2022/05/14 02:19:49;;;;;;;;;;;;;;;24.87;16.07;99276.13;5095186;28;19998;-75
2022/05/14 02:22:15;;;;;;;;;;;;;;;24.86;15.96;99277.25;5094915;28;19916;-74
2022/05/14 02:24:40;;;;;;;;;;;;;;;24.85;15.94;99276.47;5095240;28;19973;-75
2022/05/14 02:27:06;;;;;;;;;;;;;;;24.86;15.68;99280.00;5094649;28;19920;-76
2022/05/14 02:32:15;;;;;;;;;;;;;;;24.85;16.05;99268.25;5095123;28;19923;-74
2022/05/14 02:34:40;;;;;;;;;;;;;;;24.86;15.95;99264.38;5094762;28;19916;-74
2022/05/14 02:37:05;;;;;;;;;;;;;;;24.85;15.87;99271.00;5095038;28;19922;-76
2022/05/14 02:39:30;;;;;;;;;;;;;;;24.85;15.85;99262.78;5094928;28;20386;-74
2022/05/14 02:41:56;;;;;;;;;;;;;;;24.84;15.81;99266.63;5094925;28;19924;-74
2022/05/14 02:44:24;;;;;;;;;;;;;;;24.84;15.62;99258.44;5094478;28;19927;-76
2022/05/14 02:46:49;;;;;;;;;;;;;;;24.84;15.64;99263.91;5094728;28;19916;-74
2022/05/14 02:49:14;;;;;;;;;;;;;;;24.85;15.78;99270.16;5094800;28;19920;-74
2022/05/14 02:51:39;;;;;;;;;;;;;;;24.84;15.66;99263.91;5094696;28;19973;-76
2022/05/14 02:54:05;;;;;;;;;;;;;;;24.85;15.65;99264.69;5094738;28;19920;-74
2022/05/14 02:56:30;;;;;;;;;;;;;;;24.85;15.69;99264.69;5094440;28;20366;-74
2022/05/14 02:59:07;;;;;;;;;;;;;;;24.85;15.84;99270.16;5094319;28;19916;-74
2022/05/14 03:01:33;;;;;;;;;;;;;;;24.83;15.71;99259.53;5094469;28;19977;-74
2022/05/14 03:03:58;;;;;;;;;;;;;;;24.83;15.57;99254.06;5094403;28;19924;-74
2022/05/14 03:06:23;;;;;;;;;;;;;;;24.84;15.73;99255.69;5094038;28;20375;-76
2022/05/14 03:08:49;;;;;;;;;;;;;;;24.84;15.71;99261.16;5104130;28;19916;-73
2022/05/14 03:11:14;;;;;;;;;;;;;;;24.84;15.78;99252.16;5114838;28;19915;-76
2022/05/14 03:13:39;;;;;;;;;;;;;;;24.84;15.91;99252.16;5114487;28;19920;-72
2022/05/14 03:16:04;;;;;;;;;;;;;;;24.84;15.75;99252.97;5114756;28;19926;-74
2022/05/14 03:18:30;;;;;;;;;;;;;;;24.83;16.03;99245.88;5096370;28;19920;-78
2022/05/14 03:20:55;;;;;;;;;;;;;;;24.84;15.75;99254.91;5114511;28;20384;-74
2022/05/14 03:23:20;;;;;;;;;;;;;;;24.84;15.91;99255.69;5114325;28;19993;-74
2022/05/14 03:25:45;;;;;;;;;;;;;;;24.84;15.92;99254.91;5114314;28;19920;-74
2022/05/14 03:28:11;;;;;;;;;;;;;;;24.83;16.11;99254.06;5114351;28;20003;-74
2022/05/14 03:30:36;;;;;;;;;;;;;;;24.84;15.84;99257.63;5114174;28;19916;-75
2022/05/14 03:33:01;;;;;;;;;;;;;;;24.84;16.15;99254.91;5114694;28;20015;-74
2022/05/14 03:35:26;;;;;;;;;;;;;;;24.83;16.15;99259.53;5114616;28;20365;-75
2022/05/14 03:37:52;;;;;;;;;;;;;;;24.84;16.14;99255.69;5114802;28;19927;-76
2022/05/14 03:40:17;;;;;;;;;;;;;;;24.83;16.22;99259.53;5114342;28;20277;-74
2022/05/14 03:42:42;;;;;;;;;;;;;;;24.84;16.05;99258.44;5114416;28;20002;-74
2022/05/14 03:45:08;;;;;;;;;;;;;;;24.84;16.34;99252.97;5114198;28;19962;-75
2022/05/14 03:47:33;;;;;;;;;;;;;;;24.83;16.21;99254.06;5114400;28;20065;-74
2022/05/14 03:49:58;;;;;;;;;;;;;;;24.83;16.09;99259.53;5114540;28;19977;-74
2022/05/14 03:52:24;;;;;;;;;;;;;;;24.84;16.08;99260.38;5114510;28;19920;-75
2022/05/14 03:54:49;;;;;;;;;;;;;;;24.84;16.36;99261.16;5114320;28;19920;-73
2022/05/14 03:57:14;;;;;;;;;;;;;;;24.85;16.16;99256.50;5114257;28;20423;-75
2022/05/14 03:59:39;;;;;;;;;;;;;;;24.86;16.62;99252.66;5113955;28;20286;-73
2022/05/14 04:02:05;;;;;;;;;;;;;;;24.86;16.16;99252.66;5113938;28;19916;-74
2022/05/14 04:04:30;;;;;;;;;;;;;;;24.84;16.46;99250.25;5114874;28;19941;-76
2022/05/14 04:06:56;;;;;;;;;;;;;;;24.86;16.34;99249.94;5113946;28;19923;-74
2022/05/14 04:09:21;;;;;;;;;;;;;;;24.85;16.54;99240.09;5099796;28;20003;-74
2022/05/14 04:11:46;;;;;;;;;;;;;;;24.85;16.60;99246.41;5093613;28;19994;-74
2022/05/14 04:14:12;;;;;;;;;;;;;;;24.86;16.42;99249.94;5093798;28;19927;-75
2022/05/14 04:16:38;;;;;;;;;;;;;;;24.85;16.68;99246.41;5095258;28;20382;-74
2022/05/14 04:19:03;;;;;;;;;;;;;;;24.86;16.56;99247.19;5097559;28;19931;-74
2022/05/14 04:21:28;;;;;;;;;;;;;;;24.85;16.74;99249.13;5097647;28;19923;-74
2022/05/14 04:23:53;;;;;;;;;;;;;;;24.86;16.77;99250.72;5097213;28;20320;-74
2022/05/14 04:26:22;;;;;;;;;;;;;;;24.87;16.57;99240.59;5096997;28;19963;-73
2022/05/14 04:28:47;;;;;;;;;;;;;;;24.87;16.87;99240.59;5097355;28;19916;-75
2022/05/14 04:31:12;;;;;;;;;;;;;;;24.86;16.90;99239.81;5097159;28;19923;-73
2022/05/14 04:33:38;;;;;;;;;;;;;;;24.87;16.80;99238.69;5097205;28;19927;-75
2022/05/14 04:36:03;;;;;;;;;;;;;;;24.87;16.76;99238.69;5097027;28;20321;-74
2022/05/14 04:38:28;;;;;;;;;;;;;;;24.87;16.68;99241.44;5096869;28;19923;-74
2022/05/14 04:40:53;;;;;;;;;;;;;;;24.86;16.76;99228.88;5097060;28;20317;-74
2022/05/14 04:43:19;;;;;;;;;;;;;;;24.88;16.96;99234.03;5096718;28;19923;-75
2022/05/14 04:45:44;;;;;;;;;;;;;;;24.87;16.81;99233.22;5096995;28;19999;-74
2022/05/14 04:48:10;;;;;;;;;;;;;;;24.87;16.80;99233.22;5096530;28;20240;-74
2022/05/14 04:50:36;;;;;;;;;;;;;;;24.87;16.73;99227.75;5096687;28;19924;-75
2022/05/14 04:53:01;;;;;;;;;;;;;;;24.89;16.92;99230.19;5096533;28;19924;-74
2022/05/14 04:55:26;;;;;;;;;;;;;;;24.88;16.88;99229.34;5096765;28;19922;-75
2022/05/14 04:57:52;;;;;;;;;;;;;;;24.91;16.92;99227.94;5096401;28;19924;-75
2022/05/14 05:00:17;;;;;;;;;;;;;;;24.90;17.00;99229.84;5096325;28;19924;-74
2022/05/14 05:05:26;;;;;;;;;;;;;;;24.90;17.21;99221.66;5096375;28;20394;-74
2022/05/14 05:07:52;;;;;;;;;;;;;;;24.90;17.02;99221.66;5097110;28;19920;-75
2022/05/14 05:10:17;;;;;;;;;;;;;;;24.91;16.95;99219.75;5116745;28;20010;-75
2022/05/14 05:12:43;;;;;;;;;;;;;;;24.91;17.11;99215.06;5116529;28;19915;-75
2022/05/14 05:15:08;;;;;;;;;;;;;;;24.91;16.91;99217.81;5116471;28;19919;-74
2022/05/14 05:17:33;;;;;;;;;;;;;;;24.91;17.11;99220.53;5116692;28;19922;-75
2022/05/14 05:20:02;;;;;;;;;;;;;;;24.93;17.46;99223.75;5116384;28;19916;-76
2022/05/14 05:22:28;;;;;;;;;;;;;;;24.95;17.18;99223.47;5116436;28;19963;-74
2022/05/14 05:24:53;;;;;;;;;;;;;;;24.93;17.31;99215.56;5116772;28;19915;-75
2022/05/14 05:27:18;;;;;;;;;;;;;;;24.96;17.21;99219.63;5116327;28;20407;-74
2022/05/14 05:29:43;;;;;;;;;;;;;;;24.99;17.37;99224.47;5116064;28;20286;-75
2022/05/14 05:32:09;;;;;;;;;;;;;;;25.01;17.22;99219.50;5116153;28;19916;-75
2022/05/14 05:34:34;;;;;;;;;;;;;;;25.01;17.41;99221.41;5116189;28;19916;-74
2022/05/14 05:36:59;;;;;;;;;;;;;;;25.02;17.19;99220.28;5116431;28;19922;-74
2022/05/14 05:39:24;;;;;;;;;;;;;;;25.03;17.22;99219.97;5116280;28;20384;-74
2022/05/14 05:41:50;;;;;;;;;;;;;;;25.04;17.28;99227.06;5116325;28;19943;-75
2022/05/14 05:44:15;;;;;;;;;;;;;;;25.03;17.45;99225.44;5116295;28;20317;-75
2022/05/14 05:46:40;;;;;;;;;;;;;;;25.05;17.18;99223.19;5116239;28;20020;-75
2022/05/14 05:49:05;;;;;;;;;;;;;;;25.06;17.20;99227.56;5115814;28;20373;-73
2022/05/14 05:51:31;;;;;;;;;;;;;;;25.07;17.16;99225.63;5116212;28;19920;-75
2022/05/14 05:56:47;;;;;;;;;;;;;;;25.09;17.17;99224.22;5116064;28;19981;-77
2022/05/14 05:59:12;;;;;;;;;;;;;;;25.10;17.13;99225.81;5115849;28;19926;-74
2022/05/14 06:01:38;;;;;;;;;;;;;;;25.08;17.10;99217.13;5115901;28;20293;-75
2022/05/14 06:04:03;;;;;;;;;;;;;;;25.08;17.33;99216.31;5115572;28;19915;-75
2022/05/14 06:06:28;;;;;;;;;;;;;;;25.10;17.00;99225.81;5115884;28;19922;-74
2022/05/14 06:08:54;;;;;;;;;;;;;;;25.10;17.15;99225.00;5107141;28;19920;-75
2022/05/14 06:11:19;;;;;;;;;;;;;;;25.12;17.11;99225.50;5095436;28;19916;-74
2022/05/14 06:13:44;;;;;;;;;;;;;;;25.12;16.94;99220.03;5095013;28;19920;-75
2022/05/14 06:16:10;;;;;;;;;;;;;;;25.13;16.90;99224.38;5095186;28;19916;-76
2022/05/14 06:18:35;;;;;;;;;;;;;;;25.15;16.92;99221.31;5095136;28;20422;-74
2022/05/14 06:21:01;;;;;;;;;;;;;;;25.16;16.84;99217.47;5095164;28;20351;-75
2022/05/14 06:23:26;;;;;;;;;;;;;;;25.19;16.98;99220.38;5094806;28;20370;-73
2022/05/14 06:25:51;;;;;;;;;;;;;;;25.19;16.90;99216.84;5094866;28;20053;-73
2022/05/14 06:28:16;;;;;;;;;;;;;;;25.19;16.99;99217.66;5095042;28;20270;-75
2022/05/14 06:30:43;;;;;;;;;;;;;;;25.22;16.68;99217.03;5095020;28;19951;-74
2022/05/14 06:33:08;;;;;;;;;;;;;;;25.22;16.69;99221.69;5094683;28;19916;-75
2022/05/14 06:35:34;;;;;;;;;;;;;;;25.21;16.53;99215.41;5094566;28;20010;-75
2022/05/14 06:37:59;;;;;;;;;;;;;;;25.20;16.49;99207.50;5077242;28;19923;-75
2022/05/14 06:40:25;;;;;;;;;;;;;;;25.24;16.49;99212.03;5093585;28;19916;-75
2022/05/14 06:42:50;;;;;;;;;;;;;;;25.26;16.27;99211.78;5094751;28;19973;-74
2022/05/14 06:45:15;;;;;;;;;;;;;;;25.27;16.51;99214.19;5094720;28;20350;-74
2022/05/14 06:47:41;;;;;;;;;;;;;;;25.25;16.29;99210.97;5094619;28;20405;-76
2022/05/14 06:50:06;;;;;;;;;;;;;;;25.29;16.15;99205.69;5094423;28;19917;-74
2022/05/14 06:52:31;;;;;;;;;;;;;;;25.29;16.14;99217.41;5094636;28;19928;-75
2022/05/14 06:54:57;;;;;;;;;;;;;;;25.30;16.21;99210.00;5095071;28;19928;-72
2022/05/14 06:57:22;;;;;;;;;;;;;;;25.29;16.46;99209.22;5076432;28;20382;-74
2022/05/14 06:59:47;;;;;;;;;;;;;;;25.27;16.29;99207.94;5094403;28;20010;-76
2022/05/14 07:02:13;;;;;;;;;;;;;;;25.30;16.15;99207.28;5094056;28;19916;-73
2022/05/14 07:07:22;;;;;;;;;;;;;;;25.32;16.27;99201.50;5094370;28;20108;-75
2022/05/14 07:09:49;;;;;;;;;;;;;;;25.32;16.27;99204.22;5109180;28;20372;-73
2022/05/14 07:12:15;;;;;;;;;;;;;;;25.34;16.08;99191.88;5114737;28;19915;-75
2022/05/14 07:14:40;;;;;;;;;;;;;;;25.33;16.11;99209.38;5114539;28;19915;-74
2022/05/14 07:17:06;;;;;;;;;;;;;;;25.34;16.15;99200.06;5114514;28;19916;-75
2022/05/14 07:19:31;;;;;;;;;;;;;;;25.36;16.04;99203.28;5114255;28;20015;-76
2022/05/14 07:21:57;;;;;;;;;;;;;;;25.35;15.94;99198.13;5114597;28;19947;-73
2022/05/14 07:24:23;;;;;;;;;;;;;;;25.37;15.89;99198.63;5114217;28;19945;-74
2022/05/14 07:26:50;;;;;;;;;;;;;;;25.38;16.01;99202.97;5114009;28;19959;-74
2022/05/14 07:29:16;;;;;;;;;;;;;;;25.38;15.84;99202.97;5115206;28;19916;-74
2022/05/14 07:31:41;;;;;;;;;;;;;;;25.40;15.86;99198.00;5114377;28;19916;-76
2022/05/14 07:34:06;;;;;;;;;;;;;;;25.38;16.04;99198.31;5114541;28;19915;-74
2022/05/14 07:36:33;;;;;;;;;;;;;;;25.40;16.12;99196.06;5113952;28;20366;-74
2022/05/14 07:38:59;;;;;;;;;;;;;;;25.39;16.14;99194.47;5114304;28;20270;-75
2022/05/14 07:41:24;;;;;;;;;;;;;;;25.40;15.86;99187.06;5114240;28;19922;-73
2022/05/14 07:43:49;;;;;;;;;;;;;;;25.43;15.81;99189.16;5114219;28;20277;-74
2022/05/14 07:46:15;;;;;;;;;;;;;;;25.41;16.00;99185.94;5114190;28;19915;-74
2022/05/14 07:48:41;;;;;;;;;;;;;;;25.44;16.15;99194.31;5095770;28;20011;-74
2022/05/14 07:51:06;;;;;;;;;;;;;;;25.44;16.12;99188.84;5115065;28;19967;-75
2022/05/14 07:53:32;;;;;;;;;;;;;;;25.44;16.13;99188.03;5118104;28;19968;-74
2022/05/14 07:55:57;;;;;;;;;;;;;;;25.45;15.86;99189.66;5118244;28;19916;-75
2022/05/14 07:58:24;;;;;;;;;;;;;;;25.42;16.26;99184.81;5100166;28;19915;-74
2022/05/14 08:00:49;;;;;;;;;;;;;;;25.47;15.91;99190.97;5117892;28;19923;-74
2022/05/14 08:03:14;;;;;;;;;;;;;;;25.47;16.14;99185.50;5117926;28;19916;-74
2022/05/14 08:05:40;;;;;;;;;;;;;;;25.45;16.11;99187.72;5117975;28;19915;-74
2022/05/14 08:08:05;;;;;;;;;;;;;;;25.48;16.17;99187.09;5118166;28;19920;-75
2022/05/14 08:10:30;;;;;;;;;;;;;;;25.49;15.91;99182.41;5097402;28;19924;-73
2022/05/14 08:12:56;;;;;;;;;;;;;;;25.50;16.08;99184.03;5097461;28;19916;-74
2022/05/14 08:15:22;;;;;;;;;;;;;;;25.51;16.30;99182.94;5097636;28;20094;-76
2022/05/14 08:17:48;;;;;;;;;;;;;;;25.52;16.33;99179.06;5097405;28;20371;-75
2022/05/14 08:20:13;;;;;;;;;;;;;;;25.55;16.29;99177.63;5097250;28;20027;-75
2022/05/14 08:25:22;;;;;;;;;;;;;;;25.54;16.20;99176.00;5097268;28;19926;-73
2022/05/14 08:27:47;;;;;;;;;;;;;;;25.56;16.19;99176.50;5097464;28;19944;-75
2022/05/14 08:30:23;;;;;;;;;;;;;;;25.58;16.12;99174.25;5096943;28;20285;-74
2022/05/14 08:32:48;;;;;;;;;;;;;;;25.59;16.41;99184.06;5097283;28;19917;-74
2022/05/14 08:35:14;;;;;;;;;;;;;;;25.58;16.39;99169.59;5096942;28;19917;-75
2022/05/14 08:37:39;;;;;;;;;;;;;;;25.58;16.33;99175.06;5097148;28;19923;-75
2022/05/14 08:40:13;;;;;;;;;;;;;;;25.57;16.42;99170.69;5097060;28;19916;-75
2022/05/14 08:42:38;;;;;;;;;;;;;;;25.59;16.51;99175.84;5097157;28;19995;-75
2022/05/14 08:45:04;;;;;;;;;;;;;;;25.59;16.53;99165.72;5097092;28;20409;-74
2022/05/14 08:47:35;;;;;;;;;;;;;;;25.59;16.51;99168.44;5078648;28;19923;-75
2022/05/14 08:50:00;;;;;;;;;;;;;;;25.65;16.45;99164.47;5079137;28;19931;-75
2022/05/14 08:52:26;;;;;;;;;;;;;;;25.65;16.39;99167.19;5097423;28;20300;-74
2022/05/14 08:55:01;;;;;;;;;;;;;;;25.60;16.44;99161.88;5096819;28;19940;-74
2022/05/14 08:57:40;;;;;;;;;;;;;;;25.66;16.57;99165.25;5078950;28;19922;-74
2022/05/14 09:00:06;;;;;;;;;;;;;;;25.73;16.57;99167.53;5078625;28;19916;-74
2022/05/14 09:02:32;;;;;;;;;;;;;;;25.75;16.25;99178.94;5077732;28;19935;-74
2022/05/14 09:05:05;;;;;;;;;;;;;;;25.71;16.46;99167.03;5096444;28;20316;-76
2022/05/14 09:07:30;;;;;;;;;;;;;;;25.68;16.54;99168.47;5096745;28;19920;-73
2022/05/14 09:09:56;;;;;;;;;;;;;;;25.71;16.32;99161.56;5111081;28;20373;-74
2022/05/14 09:12:23;;;;;;;;;;;;;;;25.71;16.29;99161.56;5116683;28;19959;-75
2022/05/14 09:14:52;;;;;;;;;;;;;;;25.68;16.39;99160.25;5116981;28;19916;-74
2022/05/14 09:17:21;;;;;;;;;;;;;;;25.67;16.40;99162.19;5116965;28;19915;-76
2022/05/14 09:19:46;;;;;;;;;;;;;;;25.65;16.53;99158.97;5116543;28;19923;-74
2022/05/14 09:22:18;;;;;;;;;;;;;;;25.64;16.57;99160.09;5116882;28;19920;-75
2022/05/14 09:24:45;;;;;;;;;;;;;;;25.61;16.50;99147.06;5117023;28;19915;-74
2022/05/14 09:27:19;;;;;;;;;;;;;;;25.59;16.34;99152.03;5116544;28;20385;-74
2022/05/14 09:29:44;;;;;;;;;;;;;;;25.61;16.67;99158.03;5116794;28;19960;-74
2022/05/14 09:32:21;;;;;;;;;;;;;;;25.58;16.68;99155.91;5099074;28;20000;-75
2022/05/14 09:34:47;;;;;;;;;;;;;;;25.53;16.74;99150.59;5116555;28;19918;-77
2022/05/14 09:37:19;;;;;;;;;;;;;;;25.52;16.73;99159.09;5116469;28;20305;-74
2022/05/14 09:40:00;;;;;;;;;;;;;;;25.51;16.60;99157.47;5116125;28;20003;-75
2022/05/14 09:42:29;;;;;;;;;;;;;;;25.48;16.58;99159.75;5116364;28;19995;-74
2022/05/14 09:44:55;;;;;;;;;;;;;;;25.46;16.73;99155.72;5116043;28;19923;-76
2022/05/14 09:47:24;;;;;;;;;;;;;;;25.47;16.58;99157.31;5116002;28;19915;-74
2022/05/14 09:49:54;;;;;;;;;;;;;;;25.45;16.73;99160.38;5116231;28;19979;-74
2022/05/14 09:52:22;;;;;;;;;;;;;;;25.46;16.79;99161.19;5116579;28;19920;-77
2022/05/14 09:54:48;;;;;;;;;;;;;;;25.46;16.66;99161.97;5116179;28;19926;-75
2022/05/14 09:57:14;;;;;;;;;;;;;;;25.45;16.77;99165.03;5115961;28;19916;-75
2022/05/14 09:59:48;;;;;;;;;;;;;;;25.44;16.65;99168.88;5115502;28;20035;-76
2022/05/14 10:02:32;;;;;;;;;;;;;;;25.44;16.82;99160.69;5115744;28;19920;-77
2022/05/14 10:05:00;;;;;;;;;;;;;;;25.43;16.74;99161.81;5115518;28;20326;-76
2022/05/14 10:07:34;;;;;;;;;;;;;;;25.44;16.71;99164.25;5115781;28;20011;-74
2022/05/14 10:10:08;;;;;;;;;;;;;;;25.44;16.70;99157.94;5083370;28;20003;-75
2022/05/14 10:12:38;;;;;;;;;;;;;;;25.41;16.71;99159.41;5095250;28;20414;-75
2022/05/14 10:15:23;;;;;;;;;;;;;;;25.44;16.89;99163.41;5077084;28;19920;-74
2022/05/14 10:17:58;;;;;;;;;;;;;;;25.46;16.97;99155.72;5094542;28;19924;-74
2022/05/14 10:20:43;;;;;;;;;;;;;;;25.48;16.62;99148.78;5094845;28;19922;-75
2022/05/14 10:29:10;;;;;;;;;;;;;;;25.42;16.77;99144.59;5074695;28;19924;-75
2022/05/14 10:31:45;;;;;;;;;;;;;;;25.41;16.68;99147.66;5074336;28;20363;-73
2022/05/14 10:34:15;;;;;;;;;;;;;;;25.41;16.65;99151.19;5056848;28;19947;-74
2022/05/14 10:36:54;;;;;;;;;;;;;;;25.42;16.78;99155.56;5074655;28;19958;-75
2022/05/14 10:39:22;;;;;;;;;;;;;;;25.44;16.74;99155.19;5056650;28;19916;-75
2022/05/14 10:41:48;;;;;;;;;;;;;;;25.40;16.70;99144.09;5056399;28;19923;-75
2022/05/14 10:44:17;;;;;;;;;;;;;;;25.42;16.37;99146.50;5074132;28;20397;-74
2022/05/14 10:46:42;;;;;;;;;;;;;;;25.41;16.45;99147.66;5055960;28;19916;-74
2022/05/14 10:49:25;;;;;;;;;;;;;;;25.40;16.65;99151.50;5056481;28;19924;-76
2022/05/14 10:51:51;;;;;;;;;;;;;;;25.40;16.83;99157.78;5056471;28;19944;-76
2022/05/14 10:54:21;;;;;;;;;;;;;;;25.40;16.46;99151.50;5074125;28;19920;-74
2022/05/14 10:56:55;;;;;;;;;;;;;;;25.38;16.76;99160.03;5074318;28;19961;-74
2022/05/14 10:59:28;;;;;;;;;;;;;;;25.38;16.70;99148.28;5074251;28;19920;-75
2022/05/14 11:01:53;;;;;;;;;;;;;;;25.39;16.79;99156.19;5056042;28;19944;-74
2022/05/14 11:04:21;;;;;;;;;;;;;;;25.39;16.82;99149.88;5073881;28;19917;-76
2022/05/14 11:06:54;;;;;;;;;;;;;;;25.37;16.44;99149.41;5074379;28;19917;-74
2022/05/14 11:09:40;;;;;;;;;;;;;;;25.37;16.57;99146.66;5062994;28;19935;-74
2022/05/14 11:12:07;;;;;;;;;;;;;;;25.36;16.70;99151.34;5093207;28;20426;-74
2022/05/14 11:14:45;;;;;;;;;;;;;;;25.35;16.70;99148.91;5075876;28;19923;-75
2022/05/14 11:17:18;;;;;;;;;;;;;;;25.33;16.54;99148.44;5094212;28;20003;-75
2022/05/14 11:19:43;;;;;;;;;;;;;;;25.27;16.64;99145.84;5093869;28;19923;-76
2022/05/14 11:22:18;;;;;;;;;;;;;;;25.26;16.36;99152.41;5094174;28;19916;-74
2022/05/14 11:24:43;;;;;;;;;;;;;;;25.29;16.54;99153.72;5094156;28;19920;-74
2022/05/14 11:27:09;;;;;;;;;;;;;;;25.32;16.42;99149.53;5110373;28;19919;-76
2022/05/14 11:29:54;;;;;;;;;;;;;;;25.26;16.42;99152.41;5114439;28;19938;-74
2022/05/14 11:32:20;;;;;;;;;;;;;;;25.30;16.29;99164.34;5051529;28;19917;-74
2022/05/14 11:34:55;;;;;;;;;;;;;;;25.25;16.47;99167.22;5051492;28;20360;-75
2022/05/14 11:37:47;;;;;;;;;;;;;;;25.25;16.38;99150.81;5051530;28;20388;-74
2022/05/14 11:40:21;;;;;;;;;;;;;;;25.24;16.84;99154.63;5048301;28;20381;-74
2022/05/14 11:42:47;;;;;;;;;;;;;;;25.25;16.69;99149.97;5051220;28;19917;-77
2022/05/14 11:45:23;;;;;;;;;;;;;;;25.24;16.75;99148.38;5051545;28;19920;-73
2022/05/14 11:48:02;;;;;;;;;;;;;;;25.21;16.87;99147.06;5051304;28;19943;-75
2022/05/14 11:50:30;;;;;;;;;;;;;;;25.20;16.73;99147.38;5035132;28;19924;-74
2022/05/14 11:53:04;;;;;;;;;;;;;;;25.21;16.82;99138.84;5051276;28;20011;-74
2022/05/14 11:55:33;;;;;;;;;;;;;;;25.20;16.70;99147.38;5051160;28;19951;-73
2022/05/14 11:58:01;;;;;;;;;;;;;;;25.20;16.80;99150.94;5051170;28;19917;-75
2022/05/14 12:00:29;;;;;;;;;;;;;;;25.20;16.93;99148.19;5034419;28;19943;-75
2022/05/14 12:02:55;;;;;;;;;;;;;;;25.21;16.92;99154.47;5051241;28;19916;-74
2022/05/14 12:05:24;;;;;;;;;;;;;;;25.17;16.89;99151.56;5051150;28;20504;-74
2022/05/14 12:08:08;;;;;;;;;;;;;;;25.19;16.83;99151.25;5051049;28;19921;-75
2022/05/14 12:10:45;;;;;;;;;;;;;;;25.21;16.86;99154.47;5094927;28;19959;-74
2022/05/14 12:13:29;;;;;;;;;;;;;;;25.19;17.19;99149.31;5093302;28;20390;-76
2022/05/14 12:15:56;;;;;;;;;;;;;;;25.20;17.00;99148.19;5093581;28;19947;-77
2022/05/14 12:18:21;;;;;;;;;;;;;;;25.24;17.26;99148.38;5075522;28;19916;-73
2022/05/14 12:20:56;;;;;;;;;;;;;;;25.25;16.86;99139.03;5093260;28;20378;-75
2022/05/14 12:23:31;;;;;;;;;;;;;;;25.27;16.88;99147.78;5075406;28;19948;-76
2022/05/14 12:25:56;;;;;;;;;;;;;;;25.24;17.19;99137.44;5086243;28;19920;-74
2022/05/14 12:28:25;;;;;;;;;;;;;;;25.28;17.06;99139.25;5073297;28;19916;-75
2022/05/14 12:33:35;;;;;;;;;;;;;;;25.27;16.91;99142.31;5073218;28;19970;-75
2022/05/14 12:36:00;;;;;;;;;;;;;;;25.31;16.91;99137.81;5072880;28;19916;-74
2022/05/14 12:38:29;;;;;;;;;;;;;;;25.28;16.93;99135.69;5074714;28;19999;-75
2022/05/14 12:40:55;;;;;;;;;;;;;;;25.29;16.90;99140.06;5058977;28;19927;-75
2022/05/14 12:43:20;;;;;;;;;;;;;;;25.32;16.86;99138.59;5076521;28;19917;-74
2022/05/14 12:45:51;;;;;;;;;;;;;;;25.29;17.19;99140.84;5076838;28;19923;-74
2022/05/14 12:48:16;;;;;;;;;;;;;;;25.27;17.12;99137.63;5058762;28;19917;-74
2022/05/14 12:50:53;;;;;;;;;;;;;;;25.29;16.98;99134.59;5076245;28;19923;-74
2022/05/14 12:53:18;;;;;;;;;;;;;;;25.30;16.92;99142.47;5076420;28;19921;-74
2022/05/14 12:55:45;;;;;;;;;;;;;;;25.28;17.05;99139.25;5059192;28;19916;-74
2022/05/14 12:58:10;;;;;;;;;;;;;;;25.28;17.27;99139.25;5076166;28;20001;-74
2022/05/14 13:00:37;;;;;;;;;;;;;;;25.27;17.29;99137.63;5058479;28;20028;-73
2022/05/14 13:03:04;;;;;;;;;;;;;;;25.27;17.32;99143.09;5076484;28;19939;-74
2022/05/14 13:05:31;;;;;;;;;;;;;;;25.28;17.04;99142.00;5076552;28;19916;-76
2022/05/14 13:07:58;;;;;;;;;;;;;;;25.27;17.20;99147.78;5058872;28;19917;-75
2022/05/14 13:10:26;;;;;;;;;;;;;;;25.24;17.08;99143.69;5090229;28;19920;-74
2022/05/14 13:12:53;;;;;;;;;;;;;;;25.22;17.38;99139.69;5096752;28;19916;-76